sensor_id;sensor_type;location;lat;lon;timestamp;P1;durP1;ratioP1;P2;durP2;ratioP2
72464;SDS011;60471;52.150;4.508;2023-06-22T00:01:17;29.67;;;17.50;;
72464;SDS011;60471;52.150;4.508;2023-06-22T00:03:44;26.73;;;17.48;;
72464;SDS011;60471;52.150;4.508;2023-06-22T00:06:10;29.83;;;19.45;;
72464;SDS011;60471;52.150;4.508;2023-06-22T00:08:36;32.47;;;19.42;;
72464;SDS011;60471;52.150;4.508;2023-06-22T00:11:03;31.15;;;19.52;;
72464;SDS011;60471;52.150;4.508;2023-06-22T00:13:29;33.22;;;21.23;;
72464;SDS011;60471;52.150;4.508;2023-06-22T00:15:55;29.30;;;18.90;;
72464;SDS011;60471;52.150;4.508;2023-06-22T00:18:21;33.20;;;21.63;;
72464;SDS011;60471;52.150;4.508;2023-06-22T00:20:47;30.40;;;20.75;;
72464;SDS011;60471;52.150;4.508;2023-06-22T00:23:14;32.60;;;20.17;;
72464;SDS011;60471;52.150;4.508;2023-06-22T00:25:43;30.98;;;21.23;;
72464;SDS011;60471;52.150;4.508;2023-06-22T00:28:09;31.65;;;21.58;;
72464;SDS011;60471;52.150;4.508;2023-06-22T00:30:35;34.53;;;21.63;;
72464;SDS011;60471;52.150;4.508;2023-06-22T00:33:02;30.25;;;20.33;;
72464;SDS011;60471;52.150;4.508;2023-06-22T00:35:28;33.35;;;22.10;;
72464;SDS011;60471;52.150;4.508;2023-06-22T00:37:55;37.20;;;22.85;;
72464;SDS011;60471;52.150;4.508;2023-06-22T00:40:27;40.58;;;25.13;;
72464;SDS011;60471;52.150;4.508;2023-06-22T00:42:54;34.92;;;23.77;;
72464;SDS011;60471;52.150;4.508;2023-06-22T00:45:24;37.28;;;23.20;;
72464;SDS011;60471;52.150;4.508;2023-06-22T00:47:54;35.60;;;23.73;;
72464;SDS011;60471;52.150;4.508;2023-06-22T00:50:24;33.97;;;22.88;;
72464;SDS011;60471;52.150;4.508;2023-06-22T00:52:53;35.97;;;24.67;;
72464;SDS011;60471;52.150;4.508;2023-06-22T00:55:23;37.95;;;24.45;;
72464;SDS011;60471;52.150;4.508;2023-06-22T00:57:51;32.55;;;23.27;;
72464;SDS011;60471;52.150;4.508;2023-06-22T01:00:23;40.85;;;25.98;;
72464;SDS011;60471;52.150;4.508;2023-06-22T01:02:51;35.88;;;24.10;;
72464;SDS011;60471;52.150;4.508;2023-06-22T01:05:19;33.30;;;23.50;;
72464;SDS011;60471;52.150;4.508;2023-06-22T01:10:47;33.15;;;22.33;;
72464;SDS011;60471;52.150;4.508;2023-06-22T01:16:44;36.78;;;24.90;;
72464;SDS011;60471;52.150;4.508;2023-06-22T01:22:01;37.55;;;24.88;;
72464;SDS011;60471;52.150;4.508;2023-06-22T01:24:33;37.53;;;25.67;;
72464;SDS011;60471;52.150;4.508;2023-06-22T01:30:41;37.10;;;23.92;;
72464;SDS011;60471;52.150;4.508;2023-06-22T01:33:11;34.75;;;23.25;;
72464;SDS011;60471;52.150;4.508;2023-06-22T01:35:40;31.33;;;22.80;;
72464;SDS011;60471;52.150;4.508;2023-06-22T01:38:08;35.22;;;23.92;;
72464;SDS011;60471;52.150;4.508;2023-06-22T01:40:35;39.00;;;26.55;;
72464;SDS011;60471;52.150;4.508;2023-06-22T01:43:03;34.85;;;25.83;;
72464;SDS011;60471;52.150;4.508;2023-06-22T01:45:30;37.15;;;25.77;;
72464;SDS011;60471;52.150;4.508;2023-06-22T01:47:56;31.52;;;22.23;;
72464;SDS011;60471;52.150;4.508;2023-06-22T01:50:24;42.95;;;25.05;;
72464;SDS011;60471;52.150;4.508;2023-06-22T01:52:50;36.85;;;27.13;;
72464;SDS011;60471;52.150;4.508;2023-06-22T01:55:16;36.20;;;25.33;;
72464;SDS011;60471;52.150;4.508;2023-06-22T01:57:43;39.38;;;25.95;;
72464;SDS011;60471;52.150;4.508;2023-06-22T02:00:13;43.65;;;28.40;;
72464;SDS011;60471;52.150;4.508;2023-06-22T02:02:51;44.35;;;29.80;;
72464;SDS011;60471;52.150;4.508;2023-06-22T02:05:34;44.67;;;28.95;;
72464;SDS011;60471;52.150;4.508;2023-06-22T02:08:09;42.22;;;28.67;;
72464;SDS011;60471;52.150;4.508;2023-06-22T02:10:43;49.00;;;31.23;;
72464;SDS011;60471;52.150;4.508;2023-06-22T02:13:12;53.13;;;29.27;;
72464;SDS011;60471;52.150;4.508;2023-06-22T02:15:40;45.42;;;29.60;;
72464;SDS011;60471;52.150;4.508;2023-06-22T02:18:07;44.10;;;30.13;;
72464;SDS011;60471;52.150;4.508;2023-06-22T02:20:36;40.42;;;29.42;;
72464;SDS011;60471;52.150;4.508;2023-06-22T02:23:04;53.13;;;33.58;;
72464;SDS011;60471;52.150;4.508;2023-06-22T02:25:32;47.72;;;32.05;;
72464;SDS011;60471;52.150;4.508;2023-06-22T02:27:59;50.03;;;34.72;;
72464;SDS011;60471;52.150;4.508;2023-06-22T02:30:25;48.78;;;33.72;;
72464;SDS011;60471;52.150;4.508;2023-06-22T02:32:52;49.08;;;33.53;;
72464;SDS011;60471;52.150;4.508;2023-06-22T02:35:25;57.65;;;37.00;;
72464;SDS011;60471;52.150;4.508;2023-06-22T02:37:58;56.00;;;34.38;;
72464;SDS011;60471;52.150;4.508;2023-06-22T02:40:26;52.47;;;35.15;;
72464;SDS011;60471;52.150;4.508;2023-06-22T02:42:53;52.65;;;37.05;;
72464;SDS011;60471;52.150;4.508;2023-06-22T02:45:19;62.22;;;39.13;;
72464;SDS011;60471;52.150;4.508;2023-06-22T02:47:46;56.78;;;37.17;;
72464;SDS011;60471;52.150;4.508;2023-06-22T02:50:13;60.78;;;40.50;;
72464;SDS011;60471;52.150;4.508;2023-06-22T02:52:41;66.00;;;41.85;;
72464;SDS011;60471;52.150;4.508;2023-06-22T02:55:07;61.15;;;41.92;;
72464;SDS011;60471;52.150;4.508;2023-06-22T02:57:34;58.83;;;40.33;;
72464;SDS011;60471;52.150;4.508;2023-06-22T03:00:01;60.03;;;41.08;;
72464;SDS011;60471;52.150;4.508;2023-06-22T03:02:42;61.33;;;40.13;;
72464;SDS011;60471;52.150;4.508;2023-06-22T03:05:10;56.70;;;40.33;;
72464;SDS011;60471;52.150;4.508;2023-06-22T03:07:40;54.00;;;36.20;;
72464;SDS011;60471;52.150;4.508;2023-06-22T03:10:10;57.03;;;36.65;;
72464;SDS011;60471;52.150;4.508;2023-06-22T03:12:38;64.32;;;39.80;;
72464;SDS011;60471;52.150;4.508;2023-06-22T03:15:11;53.75;;;37.15;;
72464;SDS011;60471;52.150;4.508;2023-06-22T03:17:39;58.60;;;38.75;;
72464;SDS011;60471;52.150;4.508;2023-06-22T03:20:07;55.83;;;37.85;;
72464;SDS011;60471;52.150;4.508;2023-06-22T03:22:39;57.72;;;38.10;;
72464;SDS011;60471;52.150;4.508;2023-06-22T03:25:07;54.17;;;36.65;;
72464;SDS011;60471;52.150;4.508;2023-06-22T03:27:39;58.55;;;39.08;;
72464;SDS011;60471;52.150;4.508;2023-06-22T03:30:13;58.45;;;37.30;;
72464;SDS011;60471;52.150;4.508;2023-06-22T03:32:40;63.58;;;40.95;;
72464;SDS011;60471;52.150;4.508;2023-06-22T03:35:06;60.05;;;37.97;;
72464;SDS011;60471;52.150;4.508;2023-06-22T03:37:33;56.28;;;38.05;;
72464;SDS011;60471;52.150;4.508;2023-06-22T03:39:59;61.30;;;40.25;;
72464;SDS011;60471;52.150;4.508;2023-06-22T03:42:25;59.58;;;40.20;;
72464;SDS011;60471;52.150;4.508;2023-06-22T03:44:52;63.10;;;41.50;;
72464;SDS011;60471;52.150;4.508;2023-06-22T03:47:18;59.00;;;38.85;;
72464;SDS011;60471;52.150;4.508;2023-06-22T03:49:45;55.95;;;38.70;;
72464;SDS011;60471;52.150;4.508;2023-06-22T03:52:11;59.55;;;39.33;;
72464;SDS011;60471;52.150;4.508;2023-06-22T03:54:37;61.08;;;39.13;;
72464;SDS011;60471;52.150;4.508;2023-06-22T03:57:03;60.13;;;38.10;;
72464;SDS011;60471;52.150;4.508;2023-06-22T03:59:31;59.08;;;37.28;;
72464;SDS011;60471;52.150;4.508;2023-06-22T04:01:58;65.43;;;39.60;;
72464;SDS011;60471;52.150;4.508;2023-06-22T04:04:24;53.83;;;36.72;;
72464;SDS011;60471;52.150;4.508;2023-06-22T04:06:50;54.30;;;36.33;;
72464;SDS011;60471;52.150;4.508;2023-06-22T04:09:16;55.78;;;36.97;;
72464;SDS011;60471;52.150;4.508;2023-06-22T04:11:43;59.45;;;39.20;;
72464;SDS011;60471;52.150;4.508;2023-06-22T04:14:09;54.05;;;36.97;;
72464;SDS011;60471;52.150;4.508;2023-06-22T04:16:35;53.17;;;35.55;;
72464;SDS011;60471;52.150;4.508;2023-06-22T04:19:02;56.17;;;37.83;;
72464;SDS011;60471;52.150;4.508;2023-06-22T04:21:28;54.03;;;35.92;;
72464;SDS011;60471;52.150;4.508;2023-06-22T04:23:54;53.63;;;35.55;;
72464;SDS011;60471;52.150;4.508;2023-06-22T04:26:20;53.33;;;35.95;;
72464;SDS011;60471;52.150;4.508;2023-06-22T04:28:47;53.83;;;36.83;;
72464;SDS011;60471;52.150;4.508;2023-06-22T04:31:21;59.30;;;36.75;;
72464;SDS011;60471;52.150;4.508;2023-06-22T04:33:47;54.95;;;37.90;;
72464;SDS011;60471;52.150;4.508;2023-06-22T04:36:14;53.75;;;36.72;;
72464;SDS011;60471;52.150;4.508;2023-06-22T04:38:40;58.20;;;37.10;;
72464;SDS011;60471;52.150;4.508;2023-06-22T04:41:08;56.83;;;37.13;;
72464;SDS011;60471;52.150;4.508;2023-06-22T04:43:49;53.13;;;34.88;;
72464;SDS011;60471;52.150;4.508;2023-06-22T04:46:20;52.80;;;34.50;;
72464;SDS011;60471;52.150;4.508;2023-06-22T04:48:46;48.05;;;32.45;;
72464;SDS011;60471;52.150;4.508;2023-06-22T04:51:12;52.15;;;34.50;;
72464;SDS011;60471;52.150;4.508;2023-06-22T04:53:39;51.67;;;30.77;;
72464;SDS011;60471;52.150;4.508;2023-06-22T04:56:07;46.97;;;30.15;;
72464;SDS011;60471;52.150;4.508;2023-06-22T04:58:34;55.28;;;34.30;;
72464;SDS011;60471;52.150;4.508;2023-06-22T05:01:00;46.25;;;31.55;;
72464;SDS011;60471;52.150;4.508;2023-06-22T05:03:26;44.08;;;30.92;;
72464;SDS011;60471;52.150;4.508;2023-06-22T05:05:52;52.83;;;32.10;;
72464;SDS011;60471;52.150;4.508;2023-06-22T05:08:19;42.13;;;28.88;;
72464;SDS011;60471;52.150;4.508;2023-06-22T05:10:45;43.67;;;27.48;;
72464;SDS011;60471;52.150;4.508;2023-06-22T05:13:12;45.38;;;27.08;;
72464;SDS011;60471;52.150;4.508;2023-06-22T05:15:38;41.33;;;26.88;;
72464;SDS011;60471;52.150;4.508;2023-06-22T05:18:06;39.83;;;26.25;;
72464;SDS011;60471;52.150;4.508;2023-06-22T05:20:32;38.97;;;25.45;;
72464;SDS011;60471;52.150;4.508;2023-06-22T05:23:01;36.63;;;24.23;;
72464;SDS011;60471;52.150;4.508;2023-06-22T05:25:28;35.10;;;22.48;;
72464;SDS011;60471;52.150;4.508;2023-06-22T05:27:55;40.63;;;25.25;;
72464;SDS011;60471;52.150;4.508;2023-06-22T05:30:21;40.17;;;26.38;;
72464;SDS011;60471;52.150;4.508;2023-06-22T05:32:48;39.42;;;26.83;;
72464;SDS011;60471;52.150;4.508;2023-06-22T05:35:14;39.45;;;26.02;;
72464;SDS011;60471;52.150;4.508;2023-06-22T05:37:40;37.83;;;24.92;;
72464;SDS011;60471;52.150;4.508;2023-06-22T05:40:07;37.25;;;24.92;;
72464;SDS011;60471;52.150;4.508;2023-06-22T05:42:35;39.92;;;26.15;;
72464;SDS011;60471;52.150;4.508;2023-06-22T05:45:01;33.25;;;23.48;;
72464;SDS011;60471;52.150;4.508;2023-06-22T05:47:28;39.15;;;25.92;;
72464;SDS011;60471;52.150;4.508;2023-06-22T05:49:54;37.03;;;25.50;;
72464;SDS011;60471;52.150;4.508;2023-06-22T05:52:20;41.38;;;26.75;;
72464;SDS011;60471;52.150;4.508;2023-06-22T05:54:46;39.03;;;25.08;;
72464;SDS011;60471;52.150;4.508;2023-06-22T05:57:12;37.67;;;25.40;;
72464;SDS011;60471;52.150;4.508;2023-06-22T05:59:39;36.22;;;25.20;;
72464;SDS011;60471;52.150;4.508;2023-06-22T06:02:05;40.90;;;26.08;;
72464;SDS011;60471;52.150;4.508;2023-06-22T06:04:31;35.90;;;24.92;;
72464;SDS011;60471;52.150;4.508;2023-06-22T06:06:57;37.40;;;25.48;;
72464;SDS011;60471;52.150;4.508;2023-06-22T06:09:24;38.63;;;24.38;;
72464;SDS011;60471;52.150;4.508;2023-06-22T06:11:50;35.70;;;24.40;;
72464;SDS011;60471;52.150;4.508;2023-06-22T06:14:16;34.60;;;23.00;;
72464;SDS011;60471;52.150;4.508;2023-06-22T06:16:42;37.47;;;21.58;;
72464;SDS011;60471;52.150;4.508;2023-06-22T06:19:09;35.30;;;22.63;;
72464;SDS011;60471;52.150;4.508;2023-06-22T06:21:35;30.90;;;22.25;;
72464;SDS011;60471;52.150;4.508;2023-06-22T06:24:02;36.70;;;22.85;;
72464;SDS011;60471;52.150;4.508;2023-06-22T06:26:28;37.97;;;25.10;;
72464;SDS011;60471;52.150;4.508;2023-06-22T06:28:55;37.03;;;23.70;;
72464;SDS011;60471;52.150;4.508;2023-06-22T06:31:23;32.80;;;22.65;;
72464;SDS011;60471;52.150;4.508;2023-06-22T06:33:49;32.45;;;22.45;;
72464;SDS011;60471;52.150;4.508;2023-06-22T06:36:16;31.33;;;21.00;;
72464;SDS011;60471;52.150;4.508;2023-06-22T06:38:42;31.70;;;20.10;;
72464;SDS011;60471;52.150;4.508;2023-06-22T06:41:08;29.35;;;18.25;;
72464;SDS011;60471;52.150;4.508;2023-06-22T06:43:34;28.92;;;18.40;;
72464;SDS011;60471;52.150;4.508;2023-06-22T06:46:01;31.23;;;19.23;;
72464;SDS011;60471;52.150;4.508;2023-06-22T06:48:28;28.17;;;16.88;;
72464;SDS011;60471;52.150;4.508;2023-06-22T06:50:55;24.70;;;15.48;;
72464;SDS011;60471;52.150;4.508;2023-06-22T06:53:21;21.10;;;15.30;;
72464;SDS011;60471;52.150;4.508;2023-06-22T06:55:47;24.17;;;14.30;;
72464;SDS011;60471;52.150;4.508;2023-06-22T06:58:14;20.05;;;13.25;;
72464;SDS011;60471;52.150;4.508;2023-06-22T07:00:40;21.77;;;13.13;;
72464;SDS011;60471;52.150;4.508;2023-06-22T07:03:06;17.65;;;10.05;;
72464;SDS011;60471;52.150;4.508;2023-06-22T07:05:33;14.85;;;8.27;;
72464;SDS011;60471;52.150;4.508;2023-06-22T07:08:01;15.88;;;9.75;;
72464;SDS011;60471;52.150;4.508;2023-06-22T07:10:28;14.25;;;6.68;;
72464;SDS011;60471;52.150;4.508;2023-06-22T07:12:55;16.60;;;7.30;;
72464;SDS011;60471;52.150;4.508;2023-06-22T07:15:22;14.43;;;7.07;;
72464;SDS011;60471;52.150;4.508;2023-06-22T07:17:49;17.00;;;6.93;;
72464;SDS011;60471;52.150;4.508;2023-06-22T07:20:15;14.27;;;7.53;;
72464;SDS011;60471;52.150;4.508;2023-06-22T07:22:42;14.00;;;7.75;;
72464;SDS011;60471;52.150;4.508;2023-06-22T07:25:10;20.60;;;7.03;;
72464;SDS011;60471;52.150;4.508;2023-06-22T07:27:43;14.90;;;8.65;;
72464;SDS011;60471;52.150;4.508;2023-06-22T07:30:23;16.45;;;7.78;;
72464;SDS011;60471;52.150;4.508;2023-06-22T07:32:51;12.57;;;5.80;;
72464;SDS011;60471;52.150;4.508;2023-06-22T07:35:17;12.93;;;5.32;;
72464;SDS011;60471;52.150;4.508;2023-06-22T07:37:43;12.02;;;5.22;;
72464;SDS011;60471;52.150;4.508;2023-06-22T07:40:09;11.00;;;4.90;;
72464;SDS011;60471;52.150;4.508;2023-06-22T07:42:36;11.63;;;4.82;;
72464;SDS011;60471;52.150;4.508;2023-06-22T07:45:03;11.35;;;5.25;;
72464;SDS011;60471;52.150;4.508;2023-06-22T07:47:31;12.27;;;5.65;;
72464;SDS011;60471;52.150;4.508;2023-06-22T07:50:01;11.93;;;5.22;;
72464;SDS011;60471;52.150;4.508;2023-06-22T07:52:28;11.90;;;5.28;;
72464;SDS011;60471;52.150;4.508;2023-06-22T07:54:55;13.20;;;6.60;;
72464;SDS011;60471;52.150;4.508;2023-06-22T07:57:21;14.13;;;6.90;;
72464;SDS011;60471;52.150;4.508;2023-06-22T07:59:47;13.18;;;5.90;;
72464;SDS011;60471;52.150;4.508;2023-06-22T08:02:14;13.00;;;5.57;;
72464;SDS011;60471;52.150;4.508;2023-06-22T08:04:40;13.65;;;6.18;;
72464;SDS011;60471;52.150;4.508;2023-06-22T08:07:07;13.75;;;5.10;;
72464;SDS011;60471;52.150;4.508;2023-06-22T08:09:33;12.65;;;5.25;;
72464;SDS011;60471;52.150;4.508;2023-06-22T08:11:59;12.73;;;5.68;;
72464;SDS011;60471;52.150;4.508;2023-06-22T08:14:26;13.88;;;6.03;;
72464;SDS011;60471;52.150;4.508;2023-06-22T08:16:53;13.32;;;6.80;;
72464;SDS011;60471;52.150;4.508;2023-06-22T08:19:19;11.80;;;5.35;;
72464;SDS011;60471;52.150;4.508;2023-06-22T08:21:45;15.25;;;5.55;;
72464;SDS011;60471;52.150;4.508;2023-06-22T08:24:12;15.40;;;5.85;;
72464;SDS011;60471;52.150;4.508;2023-06-22T08:26:38;12.55;;;5.60;;
72464;SDS011;60471;52.150;4.508;2023-06-22T08:29:04;18.17;;;6.18;;
72464;SDS011;60471;52.150;4.508;2023-06-22T08:31:31;10.77;;;4.70;;
72464;SDS011;60471;52.150;4.508;2023-06-22T08:34:00;11.35;;;5.53;;
72464;SDS011;60471;52.150;4.508;2023-06-22T08:36:27;12.90;;;4.95;;
72464;SDS011;60471;52.150;4.508;2023-06-22T08:38:58;12.68;;;5.35;;
72464;SDS011;60471;52.150;4.508;2023-06-22T08:41:27;12.05;;;5.32;;
72464;SDS011;60471;52.150;4.508;2023-06-22T08:43:53;12.07;;;4.90;;
72464;SDS011;60471;52.150;4.508;2023-06-22T08:46:19;12.43;;;5.13;;
72464;SDS011;60471;52.150;4.508;2023-06-22T08:48:49;15.48;;;5.75;;
72464;SDS011;60471;52.150;4.508;2023-06-22T08:51:16;17.92;;;5.85;;
72464;SDS011;60471;52.150;4.508;2023-06-22T08:53:43;10.60;;;4.22;;
72464;SDS011;60471;52.150;4.508;2023-06-22T08:56:10;13.13;;;6.25;;
72464;SDS011;60471;52.150;4.508;2023-06-22T08:58:37;13.38;;;6.82;;
72464;SDS011;60471;52.150;4.508;2023-06-22T09:01:03;15.45;;;7.63;;
72464;SDS011;60471;52.150;4.508;2023-06-22T09:03:30;12.52;;;6.75;;
72464;SDS011;60471;52.150;4.508;2023-06-22T09:05:58;14.30;;;7.63;;
72464;SDS011;60471;52.150;4.508;2023-06-22T09:08:24;17.88;;;8.45;;
72464;SDS011;60471;52.150;4.508;2023-06-22T09:10:51;16.48;;;7.60;;
72464;SDS011;60471;52.150;4.508;2023-06-22T09:13:17;13.75;;;7.18;;
72464;SDS011;60471;52.150;4.508;2023-06-22T09:15:43;15.93;;;7.93;;
72464;SDS011;60471;52.150;4.508;2023-06-22T09:18:10;16.60;;;8.88;;
72464;SDS011;60471;52.150;4.508;2023-06-22T09:20:37;19.15;;;9.20;;
72464;SDS011;60471;52.150;4.508;2023-06-22T09:23:03;17.45;;;9.32;;
72464;SDS011;60471;52.150;4.508;2023-06-22T09:25:29;20.75;;;10.07;;
72464;SDS011;60471;52.150;4.508;2023-06-22T09:27:56;17.20;;;10.45;;
72464;SDS011;60471;52.150;4.508;2023-06-22T09:30:22;20.20;;;11.20;;
72464;SDS011;60471;52.150;4.508;2023-06-22T09:32:48;17.33;;;10.50;;
72464;SDS011;60471;52.150;4.508;2023-06-22T09:35:14;21.92;;;10.20;;
72464;SDS011;60471;52.150;4.508;2023-06-22T09:37:41;18.42;;;9.55;;
72464;SDS011;60471;52.150;4.508;2023-06-22T09:40:07;15.95;;;8.85;;
72464;SDS011;60471;52.150;4.508;2023-06-22T09:42:38;15.95;;;8.13;;
72464;SDS011;60471;52.150;4.508;2023-06-22T09:45:05;14.02;;;6.88;;
72464;SDS011;60471;52.150;4.508;2023-06-22T09:47:32;20.20;;;7.65;;
72464;SDS011;60471;52.150;4.508;2023-06-22T09:49:58;17.80;;;8.07;;
72464;SDS011;60471;52.150;4.508;2023-06-22T09:52:25;16.98;;;7.28;;
72464;SDS011;60471;52.150;4.508;2023-06-22T09:54:51;20.27;;;8.60;;
72464;SDS011;60471;52.150;4.508;2023-06-22T09:57:18;17.48;;;8.95;;
72464;SDS011;60471;52.150;4.508;2023-06-22T09:59:44;18.63;;;10.77;;
72464;SDS011;60471;52.150;4.508;2023-06-22T10:02:10;13.52;;;6.88;;
72464;SDS011;60471;52.150;4.508;2023-06-22T10:04:36;17.52;;;8.20;;
72464;SDS011;60471;52.150;4.508;2023-06-22T10:07:03;19.17;;;8.38;;
72464;SDS011;60471;52.150;4.508;2023-06-22T10:09:29;15.85;;;7.68;;
72464;SDS011;60471;52.150;4.508;2023-06-22T10:11:55;14.27;;;8.32;;
72464;SDS011;60471;52.150;4.508;2023-06-22T10:14:22;16.15;;;7.35;;
72464;SDS011;60471;52.150;4.508;2023-06-22T10:16:48;15.10;;;7.55;;
72464;SDS011;60471;52.150;4.508;2023-06-22T10:19:14;14.93;;;6.50;;
72464;SDS011;60471;52.150;4.508;2023-06-22T10:21:43;21.15;;;6.88;;
72464;SDS011;60471;52.150;4.508;2023-06-22T10:24:10;13.00;;;5.75;;
72464;SDS011;60471;52.150;4.508;2023-06-22T10:26:36;10.50;;;5.90;;
72464;SDS011;60471;52.150;4.508;2023-06-22T10:29:03;13.38;;;5.55;;
72464;SDS011;60471;52.150;4.508;2023-06-22T10:31:29;12.73;;;6.07;;
72464;SDS011;60471;52.150;4.508;2023-06-22T10:33:55;12.77;;;5.95;;
72464;SDS011;60471;52.150;4.508;2023-06-22T10:36:22;14.38;;;6.68;;
72464;SDS011;60471;52.150;4.508;2023-06-22T10:38:49;13.10;;;7.82;;
72464;SDS011;60471;52.150;4.508;2023-06-22T10:41:15;13.20;;;8.23;;
72464;SDS011;60471;52.150;4.508;2023-06-22T10:43:42;13.68;;;7.43;;
72464;SDS011;60471;52.150;4.508;2023-06-22T10:46:08;18.50;;;7.72;;
72464;SDS011;60471;52.150;4.508;2023-06-22T10:48:35;12.68;;;7.72;;
72464;SDS011;60471;52.150;4.508;2023-06-22T10:51:01;15.98;;;6.88;;
72464;SDS011;60471;52.150;4.508;2023-06-22T10:53:27;17.13;;;10.80;;
72464;SDS011;60471;52.150;4.508;2023-06-22T10:55:53;16.00;;;8.30;;
72464;SDS011;60471;52.150;4.508;2023-06-22T10:58:20;14.32;;;8.65;;
72464;SDS011;60471;52.150;4.508;2023-06-22T11:00:46;14.85;;;8.43;;
72464;SDS011;60471;52.150;4.508;2023-06-22T11:03:12;15.63;;;8.75;;
72464;SDS011;60471;52.150;4.508;2023-06-22T11:05:40;15.35;;;7.07;;
72464;SDS011;60471;52.150;4.508;2023-06-22T11:08:07;15.82;;;8.35;;
72464;SDS011;60471;52.150;4.508;2023-06-22T11:10:33;17.05;;;6.70;;
72464;SDS011;60471;52.150;4.508;2023-06-22T11:12:59;12.82;;;6.65;;
72464;SDS011;60471;52.150;4.508;2023-06-22T11:15:25;15.73;;;8.18;;
72464;SDS011;60471;52.150;4.508;2023-06-22T11:17:52;17.15;;;8.50;;
72464;SDS011;60471;52.150;4.508;2023-06-22T11:20:18;21.00;;;8.23;;
72464;SDS011;60471;52.150;4.508;2023-06-22T11:22:44;17.88;;;9.18;;
72464;SDS011;60471;52.150;4.508;2023-06-22T11:25:11;18.83;;;9.38;;
72464;SDS011;60471;52.150;4.508;2023-06-22T11:27:38;18.50;;;9.32;;
72464;SDS011;60471;52.150;4.508;2023-06-22T11:30:04;21.60;;;9.95;;
72464;SDS011;60471;52.150;4.508;2023-06-22T11:32:31;17.88;;;8.02;;
72464;SDS011;60471;52.150;4.508;2023-06-22T11:34:57;16.63;;;9.65;;
72464;SDS011;60471;52.150;4.508;2023-06-22T11:37:23;26.42;;;10.50;;
72464;SDS011;60471;52.150;4.508;2023-06-22T11:39:50;17.08;;;8.70;;
72464;SDS011;60471;52.150;4.508;2023-06-22T11:42:16;16.48;;;8.60;;
72464;SDS011;60471;52.150;4.508;2023-06-22T11:44:42;27.25;;;10.48;;
72464;SDS011;60471;52.150;4.508;2023-06-22T11:47:09;26.52;;;10.38;;
72464;SDS011;60471;52.150;4.508;2023-06-22T11:49:35;22.05;;;10.13;;
72464;SDS011;60471;52.150;4.508;2023-06-22T11:52:02;16.60;;;10.07;;
72464;SDS011;60471;52.150;4.508;2023-06-22T11:54:28;18.85;;;12.00;;
72464;SDS011;60471;52.150;4.508;2023-06-22T11:56:55;18.85;;;10.85;;
72464;SDS011;60471;52.150;4.508;2023-06-22T11:59:21;18.58;;;9.65;;
72464;SDS011;60471;52.150;4.508;2023-06-22T12:01:47;20.88;;;11.90;;
72464;SDS011;60471;52.150;4.508;2023-06-22T12:04:16;22.13;;;11.15;;
72464;SDS011;60471;52.150;4.508;2023-06-22T12:06:42;21.75;;;12.45;;
72464;SDS011;60471;52.150;4.508;2023-06-22T12:09:09;20.23;;;10.90;;
72464;SDS011;60471;52.150;4.508;2023-06-22T12:11:36;21.60;;;12.52;;
72464;SDS011;60471;52.150;4.508;2023-06-22T12:14:02;22.30;;;13.40;;
72464;SDS011;60471;52.150;4.508;2023-06-22T12:16:28;24.48;;;14.00;;
72464;SDS011;60471;52.150;4.508;2023-06-22T12:18:54;22.20;;;13.15;;
72464;SDS011;60471;52.150;4.508;2023-06-22T12:21:21;22.33;;;13.88;;
72464;SDS011;60471;52.150;4.508;2023-06-22T12:23:47;26.25;;;13.20;;
72464;SDS011;60471;52.150;4.508;2023-06-22T12:26:13;18.00;;;11.00;;
72464;SDS011;60471;52.150;4.508;2023-06-22T12:28:40;27.88;;;14.30;;
72464;SDS011;60471;52.150;4.508;2023-06-22T12:31:06;24.58;;;15.18;;
72464;SDS011;60471;52.150;4.508;2023-06-22T12:33:32;23.20;;;14.70;;
72464;SDS011;60471;52.150;4.508;2023-06-22T12:35:58;25.38;;;15.55;;
72464;SDS011;60471;52.150;4.508;2023-06-22T12:38:25;23.70;;;13.15;;
72464;SDS011;60471;52.150;4.508;2023-06-22T12:40:51;22.05;;;14.32;;
72464;SDS011;60471;52.150;4.508;2023-06-22T12:43:18;22.27;;;14.65;;
72464;SDS011;60471;52.150;4.508;2023-06-22T12:45:44;21.75;;;13.82;;
72464;SDS011;60471;52.150;4.508;2023-06-22T12:48:10;24.60;;;14.60;;
72464;SDS011;60471;52.150;4.508;2023-06-22T12:50:38;24.65;;;15.85;;
72464;SDS011;60471;52.150;4.508;2023-06-22T12:53:04;19.02;;;13.80;;
72464;SDS011;60471;52.150;4.508;2023-06-22T12:55:32;25.13;;;15.25;;
72464;SDS011;60471;52.150;4.508;2023-06-22T12:57:58;25.70;;;14.27;;
72464;SDS011;60471;52.150;4.508;2023-06-22T13:00:24;20.80;;;14.45;;
72464;SDS011;60471;52.150;4.508;2023-06-22T13:02:50;23.58;;;14.98;;
72464;SDS011;60471;52.150;4.508;2023-06-22T13:05:17;21.00;;;12.80;;
72464;SDS011;60471;52.150;4.508;2023-06-22T13:07:43;23.30;;;13.52;;
72464;SDS011;60471;52.150;4.508;2023-06-22T13:10:09;22.92;;;13.75;;
72464;SDS011;60471;52.150;4.508;2023-06-22T13:12:35;22.52;;;13.40;;
72464;SDS011;60471;52.150;4.508;2023-06-22T13:15:02;19.50;;;12.23;;
72464;SDS011;60471;52.150;4.508;2023-06-22T13:17:28;21.73;;;12.32;;
72464;SDS011;60471;52.150;4.508;2023-06-22T13:19:55;23.58;;;12.55;;
72464;SDS011;60471;52.150;4.508;2023-06-22T13:22:29;21.35;;;13.32;;
72464;SDS011;60471;52.150;4.508;2023-06-22T13:25:06;20.15;;;13.48;;
72464;SDS011;60471;52.150;4.508;2023-06-22T13:27:33;23.88;;;15.30;;
72464;SDS011;60471;52.150;4.508;2023-06-22T13:29:59;21.30;;;15.35;;
72464;SDS011;60471;52.150;4.508;2023-06-22T13:32:25;23.73;;;15.77;;
72464;SDS011;60471;52.150;4.508;2023-06-22T13:34:52;29.05;;;15.05;;
72464;SDS011;60471;52.150;4.508;2023-06-22T13:37:19;23.65;;;15.80;;
72464;SDS011;60471;52.150;4.508;2023-06-22T13:39:45;25.95;;;15.07;;
72464;SDS011;60471;52.150;4.508;2023-06-22T13:42:12;21.25;;;14.27;;
72464;SDS011;60471;52.150;4.508;2023-06-22T13:44:38;23.10;;;13.60;;
72464;SDS011;60471;52.150;4.508;2023-06-22T13:47:05;20.95;;;14.45;;
72464;SDS011;60471;52.150;4.508;2023-06-22T13:49:32;21.73;;;13.77;;
72464;SDS011;60471;52.150;4.508;2023-06-22T13:51:59;25.50;;;13.80;;
72464;SDS011;60471;52.150;4.508;2023-06-22T13:54:25;23.75;;;12.02;;
72464;SDS011;60471;52.150;4.508;2023-06-22T13:56:52;20.63;;;11.43;;
72464;SDS011;60471;52.150;4.508;2023-06-22T13:59:18;20.88;;;11.50;;
72464;SDS011;60471;52.150;4.508;2023-06-22T14:01:45;18.80;;;10.18;;
72464;SDS011;60471;52.150;4.508;2023-06-22T14:04:11;17.85;;;11.30;;
72464;SDS011;60471;52.150;4.508;2023-06-22T14:06:38;18.70;;;11.55;;
72464;SDS011;60471;52.150;4.508;2023-06-22T14:09:04;22.20;;;13.05;;
72464;SDS011;60471;52.150;4.508;2023-06-22T14:11:31;17.35;;;10.75;;
72464;SDS011;60471;52.150;4.508;2023-06-22T14:13:57;17.98;;;11.00;;
72464;SDS011;60471;52.150;4.508;2023-06-22T14:16:23;19.02;;;10.77;;
72464;SDS011;60471;52.150;4.508;2023-06-22T14:18:49;17.73;;;10.68;;
72464;SDS011;60471;52.150;4.508;2023-06-22T14:21:15;21.13;;;11.15;;
72464;SDS011;60471;52.150;4.508;2023-06-22T14:23:42;19.83;;;10.98;;
72464;SDS011;60471;52.150;4.508;2023-06-22T14:26:13;20.92;;;11.68;;
72464;SDS011;60471;52.150;4.508;2023-06-22T14:28:39;18.80;;;11.05;;
72464;SDS011;60471;52.150;4.508;2023-06-22T14:31:05;22.25;;;11.77;;
72464;SDS011;60471;52.150;4.508;2023-06-22T14:33:31;20.90;;;11.68;;
72464;SDS011;60471;52.150;4.508;2023-06-22T14:35:57;21.02;;;11.07;;
72464;SDS011;60471;52.150;4.508;2023-06-22T14:38:24;20.50;;;11.02;;